createdAt,value
2022-08-30T05:05:04.549Z,99.90
2022-08-30T05:10:10.928Z,99.90
2022-08-30T05:15:13.721Z,99.90
2022-08-30T05:20:15.770Z,99.90
2022-08-30T05:25:26.622Z,99.90
2022-08-30T05:30:28.636Z,99.90
2022-08-30T05:35:30.722Z,99.90
2022-08-30T05:40:32.535Z,99.90
2022-08-30T05:45:34.460Z,99.90
2022-08-30T05:50:39.843Z,99.90
2022-08-30T05:55:41.878Z,99.90
2022-08-30T06:00:43.718Z,99.90
2022-08-30T06:10:53.011Z,99.90
2022-08-30T06:15:54.890Z,99.90
2022-08-30T06:20:57.000Z,99.90
2022-08-30T06:26:06.153Z,99.90
2022-08-30T06:31:09.005Z,99.90
2022-08-30T06:36:13.610Z,99.90
2022-08-30T06:41:18.506Z,99.90
2022-08-30T06:46:23.431Z,99.90
2022-08-30T06:51:31.553Z,99.90
2022-08-30T06:56:33.873Z,99.90
2022-08-30T07:01:35.769Z,99.90
2022-08-30T07:06:37.590Z,99.90
2022-08-30T07:11:40.463Z,99.90
2022-08-30T07:16:43.813Z,99.90
2022-08-30T07:21:45.680Z,99.90
2022-08-30T07:26:51.735Z,99.90
2022-08-30T07:31:53.707Z,99.90
2022-08-30T07:36:55.530Z,99.90
2022-08-30T07:41:57.397Z,99.90
2022-08-30T07:46:59.195Z,99.90
2022-08-30T07:52:01.000Z,99.90
2022-08-30T07:57:02.886Z,99.90
2022-08-30T08:02:04.906Z,99.90
2022-08-30T08:07:06.808Z,99.90
2022-08-30T08:12:09.234Z,99.90
2022-08-30T08:17:11.090Z,99.90
2022-08-30T08:22:21.590Z,99.90
2022-08-30T08:27:24.796Z,99.90
2022-08-30T08:32:26.670Z,99.90
2022-08-30T08:37:28.483Z,99.90
2022-08-30T08:42:41.466Z,99.90
2022-08-30T08:47:55.783Z,99.90
2022-08-30T08:53:45.514Z,99.90
2022-08-30T08:59:11.729Z,99.90
2022-08-30T09:04:27.582Z,99.90
2022-08-30T09:09:32.429Z,99.90
2022-08-30T09:14:38.847Z,99.90
2022-08-30T09:20:00.485Z,99.90
2022-08-30T09:25:11.083Z,99.90
2022-08-30T09:30:28.115Z,99.90
2022-08-30T09:35:46.953Z,99.90
2022-08-30T09:40:51.740Z,99.90
2022-08-30T09:46:02.775Z,99.90
2022-08-30T09:51:10.963Z,99.90
2022-08-30T09:56:44.026Z,99.90
2022-08-30T10:02:08.104Z,99.90
2022-08-30T10:07:29.293Z,99.90
2022-08-30T10:12:42.306Z,99.90
2022-08-30T10:17:59.330Z,99.90
2022-08-30T10:23:34.788Z,99.90
2022-08-30T10:28:50.580Z,99.90
2022-08-30T10:33:59.355Z,99.90
2022-08-30T10:39:01.548Z,99.90
2022-08-30T10:44:03.462Z,99.90
2022-08-30T10:49:09.772Z,99.90
2022-08-30T10:54:18.898Z,92.50
2022-08-30T10:59:21.025Z,91.60
2022-08-30T11:04:50.748Z,91.50
2022-08-30T11:10:21.750Z,91.80
2022-08-30T11:15:27.728Z,82.30
2022-08-30T11:20:40.736Z,81.90
2022-08-30T11:26:03.105Z,80.20
2022-08-30T11:31:20.463Z,80.20
2022-08-30T11:36:28.604Z,81.40
2022-08-30T11:41:47.777Z,81.10
2022-08-30T11:46:55.500Z,75.80
2022-08-30T11:52:28.012Z,76.40
2022-08-30T11:57:46.449Z,73.00
2022-08-30T12:03:06.981Z,75.00
2022-08-30T12:08:21.144Z,67.80
2022-08-30T12:13:38.688Z,66.30
2022-08-30T12:18:51.144Z,65.20
2022-08-30T12:24:40.907Z,63.30
2022-08-30T12:29:52.105Z,60.00
2022-08-30T12:35:04.030Z,59.40
2022-08-30T12:40:17.186Z,57.40
2022-08-30T12:45:21.563Z,56.60
2022-08-30T12:50:35.486Z,55.90
2022-08-30T12:56:04.988Z,55.50
2022-08-30T13:01:14.974Z,52.70
2022-08-30T13:06:36.976Z,53.00
2022-08-30T13:11:38.952Z,51.90
2022-08-30T13:16:45.080Z,50.20
2022-08-30T13:21:53.425Z,49.40
2022-08-30T13:27:11.859Z,48.60
2022-08-30T13:32:13.984Z,48.90
2022-08-30T13:42:44.921Z,45.80
2022-08-30T13:47:49.068Z,47.00
2022-08-30T13:52:51.715Z,47.40
2022-08-30T13:57:54.549Z,47.40
2022-08-30T14:03:00.119Z,47.10
2022-08-30T14:08:03.337Z,46.60
2022-08-30T14:13:09.045Z,46.80
2022-08-30T14:18:13.559Z,47.30
2022-08-30T14:23:19.115Z,46.00
2022-08-30T14:28:21.701Z,46.50
2022-08-30T14:33:23.875Z,47.50
2022-08-30T14:38:25.877Z,46.40
2022-08-30T14:43:27.705Z,45.50
2022-08-30T14:48:29.609Z,44.90
2022-08-30T14:53:32.387Z,44.50
2022-08-30T14:58:34.483Z,44.60
2022-08-30T15:03:37.611Z,44.00
2022-08-30T15:08:40.145Z,44.50
2022-08-30T15:13:44.732Z,44.80
2022-08-30T15:18:47.028Z,44.70
2022-08-30T15:23:49.607Z,45.10
2022-08-30T15:28:51.815Z,46.10
2022-08-30T15:33:54.257Z,46.70
2022-08-30T15:38:56.679Z,46.40
2022-08-30T15:43:59.638Z,46.20
2022-08-30T15:49:13.069Z,46.20
2022-08-30T15:54:18.441Z,46.40
2022-08-30T15:59:21.406Z,47.30
2022-08-30T16:04:23.306Z,47.20
2022-08-30T16:09:26.590Z,47.20
2022-08-30T16:14:32.234Z,47.00
2022-08-30T16:19:34.373Z,46.50
2022-08-30T16:24:36.343Z,45.20
2022-08-30T16:29:38.225Z,44.80
2022-08-30T16:34:40.235Z,45.00
2022-08-30T16:39:45.849Z,44.90
2022-08-30T16:44:49.875Z,45.10
2022-08-30T16:49:52.035Z,45.30
2022-08-30T16:54:54.004Z,45.20
2022-08-30T16:59:55.858Z,45.30
2022-08-30T17:04:58.933Z,47.00
2022-08-30T17:10:00.869Z,48.40
2022-08-30T17:15:05.711Z,48.50
2022-08-30T17:20:09.459Z,49.80
2022-08-30T17:25:11.844Z,50.20
2022-08-30T17:30:14.077Z,50.30
2022-08-30T17:35:16.286Z,50.40
2022-08-30T17:40:19.434Z,50.60
2022-08-30T17:45:21.804Z,50.70
2022-08-30T17:50:24.648Z,51.40
2022-08-30T17:55:31.046Z,51.60
2022-08-30T18:00:35.749Z,52.10
2022-08-30T18:05:38.474Z,52.80
2022-08-30T18:10:43.722Z,53.00
2022-08-30T18:15:45.689Z,53.40
2022-08-30T18:20:52.644Z,53.60
2022-08-30T18:26:02.183Z,54.10
2022-08-30T18:31:04.711Z,54.60
2022-08-30T18:36:11.798Z,54.80
2022-08-30T18:41:15.173Z,55.10
2022-08-30T18:46:22.451Z,55.40
2022-08-30T18:51:25.099Z,55.80
2022-08-30T18:56:31.758Z,56.20
2022-08-30T19:01:36.426Z,56.40
2022-08-30T19:06:42.043Z,56.50
2022-08-30T19:11:44.214Z,56.80
2022-08-30T19:16:46.398Z,57.10
